Terminal Aerodrome Forecast
Issued by NWS

Home | Current Version | Previous Version | Text Only | Print | Product List | Glossary On
Versions: 1 2 3 4 5 6 7 8 9 10 11 12 13 14 15 16 17 18 19 20 21 22 23 24
483
FTUS45 KBYZ 162327
TAFLVM
TAF
KLVM 162327Z 1700/1724 29016KT P6SM FEW250
     FM170200 26018G26KT P6SM FEW250
     FM170600 24026G40KT P6SM DRSN SCT200
     FM171200 24032G46KT P6SM DRSN SCT250=

USA.gov is the U.S. government's official web portal to all federal, state and local government web resources and services.